Flight Track Log - Related Links

Times and Time Zones

All times are in EDT time to prevent confusion due to time zone crossing. See the EGF3046 flight status page for this flight to view local times or setup timezone preferences in your user account.

Time Position Orientation Groundspeed Altitude Reporting Facility
EDT Latitude Longitude Course Direction KTS MPH feet Rate Location/Type
Mon 03:34:57 PM 42.0167 -87.9333 80° East 189 217 2,200  Level Chicago TRACON
Mon 03:35:51 PM 42.0667 -87.8833 37° Northeast 228 262 3,900 1,556 Climbing Chicago TRACON
Mon 03:36:18 PM 42.0733 -87.8694 57° Northeast 233 268 4,300 1,820 Climbing Chicago Center
Mon 03:37:20 PM 42.1436 -87.7922 39° Northeast 271 312 6,600 2,274 Climbing Chicago Center
Mon 03:38:00 PM 42.1702 -87.3561 66° East  Level FlightAware Approximate
Mon 03:38:22 PM 42.1728 -87.6936 68° East 290 334 9,000  Level Chicago Center
Mon 03:39:00 PM 42.2176 -87.2140 66° East  Level FlightAware Approximate
Mon 03:39:24 PM 42.1911 -87.5811 78° East 304 350 10,900  Level Chicago Center
Mon 03:40:00 PM 42.2370 -87.0641 80° East  Level Estimated
Mon 03:40:26 PM 42.2114 -87.4633 77° East 319 367 12,500  Level Chicago Center
Mon 03:41:28 PM 42.2322 -87.3331 78° East 348 400 13,700 1,113 Climbing Chicago Center
Mon 03:42:30 PM 42.2569 -87.1933 77° East 377 434 14,800 1,056 Climbing Chicago Center
Mon 03:43:33 PM 42.2836 -87.0172 78° East 399 459 15,900 1,248 Climbing Chicago Center
Mon 03:44:35 PM 42.2864 -86.8622 89° East 409 471 17,400 1,403 Climbing Chicago Center
Mon 03:45:37 PM 42.2928 -86.7075 87° East 414 476 18,800 1,403 Climbing Chicago Center
Mon 03:46:39 PM 42.2997 -86.5347 87° East 422 486 20,300 1,355 Climbing Chicago Center
Mon 03:47:41 PM 42.3061 -86.3825 87° East 431 496 21,600 1,210 Climbing Chicago Center
Mon 03:48:43 PM 42.3108 -86.2203 88° East 435 501 22,800 1,161 Climbing Chicago Center
Mon 03:49:45 PM 42.3144 -86.0211 89° East 445 512 24,000 1,113 Climbing Chicago Center
Mon 03:50:47 PM 42.3122 -85.8511 91° East 453 521 25,100 1,016 Climbing Chicago Center
Mon 03:51:49 PM 42.3097 -85.6794 91° East 458 527 26,100 919 Climbing Chicago Center
Mon 03:52:51 PM 42.3072 -85.5053 91° East 464 534 27,000 435 Climbing Chicago Center
Mon 03:53:53 PM 42.3056 -85.3272 91° East 474 545 27,000  Level Chicago Center
Mon 03:54:56 PM 42.3014 -85.1025 91° East 497 572 27,000  Level Chicago Center
Mon 03:55:58 PM 42.2978 -84.9122 91° East 507 583 27,000  Level Chicago Center
Mon 03:57:00 PM 42.2919 -84.7164 92° East 519 597 27,000  Level Chicago Center
Mon 03:58:02 PM 42.2875 -84.5206 92° East 523 602 27,000  Level Chicago Center
Mon 03:59:04 PM 42.3058 -84.3275 83° East 522 601 27,000  Level Chicago Center
Mon 04:00:10 PM 42.3353 -84.1086 80° East 520 598 27,000  Level Cleveland Center
Mon 04:01:10 PM 42.3619 -83.9161 79° East 520 598 27,000  Level Cleveland Center
Mon 04:02:10 PM 42.3903 -83.7208 79° East 520 598 27,000  Level Cleveland Center
Mon 04:03:11 PM 42.4106 -83.5022 83° East 520 598 27,000  Level Cleveland Center
Mon 04:04:10 PM 42.4172 -83.3225 87° East 520 598 27,000  Level Cleveland Center
Mon 04:05:10 PM 42.4239 -83.1203 87° East 525 604 27,000  Level Cleveland Center
Mon 04:06:10 PM 42.4303 -82.9208 87° East 531 611 27,000  Level Cleveland Center
Mon 04:07:11 PM 42.4361 -82.7186 88° East 531 611 27,000  Level Cleveland Center
Mon 04:08:10 PM 42.4419 -82.5050 88° East 531 611 27,000  Level Cleveland Center
Mon 04:09:10 PM 42.4494 -82.2997 87° East 531 611 27,000  Level Cleveland Center
Mon 04:10:10 PM 42.4544 -82.1000 88° East 531 611 27,000  Level Cleveland Center
Mon 04:11:10 PM 42.4589 -81.8947 88° East 540 621 27,000  Level Cleveland Center
Mon 04:12:10 PM 42.4653 -81.6950 87° East 535 616 27,000  Level Cleveland Center
Mon 04:13:11 PM 42.4692 -81.4922 88° East 540 621 27,000  Level Cleveland Center
Mon 04:14:11 PM 42.4725 -81.2925 89° East 535 616 27,000  Level Cleveland Center
Mon 04:15:10 PM 42.4736 -81.0869 90° East 535 616 27,000  Level Cleveland Center
Mon 04:16:11 PM 42.4786 -80.8872 88° East 529 609 27,000  Level Cleveland Center
Mon 04:17:11 PM 42.4811 -80.7042 89° East 536 617 27,000  Level Cleveland Center
Mon 04:18:11 PM 42.5144 -80.5014 77° East 536 617 27,000  Level Cleveland Center
Mon 04:19:11 PM 42.5433 -80.3042 79° East 546 628 27,000  Level Cleveland Center
Mon 04:20:11 PM 42.5758 -80.1067 77° East 539 620 27,000  Level Cleveland Center
Mon 04:21:10 PM 42.6125 -79.9061 76° East 545 627 27,000  Level Cleveland Center
Mon 04:22:11 PM 42.6425 -79.7053 78° East 545 627 27,000  Level Cleveland Center
Mon 04:23:11 PM 42.6739 -79.5044 78° East 545 627 27,000  Level Cleveland Center
Mon 04:24:11 PM 42.6992 -79.3033 80° East 545 627 27,000  Level Cleveland Center
Mon 04:25:11 PM 42.7278 -79.0994 79° East 545 627 27,000  Level Cleveland Center
Mon 04:26:11 PM 42.7564 -78.8981 79° East 545 627 27,000  Level Cleveland Center
Mon 04:27:10 PM 42.7825 -78.6964 80° East 545 627 27,000 -450 Level Cleveland Center
Mon 04:28:11 PM 42.8103 -78.4975 79° East 545 627 26,100 -942 Descending Cleveland Center
Mon 04:29:11 PM 42.8172 -78.3047 87° East 532 612 25,100 -1,059 Descending Cleveland Center
Mon 04:30:10 PM 42.8236 -78.1092 87° East 519 597 24,000 -1,059 Descending Cleveland Center
Mon 04:31:10 PM 42.8317 -77.9192 87° East 519 597 23,000 -650 Descending Cleveland Center
Mon 04:32:10 PM 42.8378 -77.7292 87° East 513 590 22,700 -800 Descending Cleveland Center
Mon 04:33:10 PM 42.8350 -77.5422 91° East 502 578 21,400 -1,600 Descending Cleveland Center
Mon 04:34:10 PM 42.8303 -77.3725 92° East 474 545 19,500 -1,750 Descending Cleveland Center
Mon 04:35:10 PM 42.8278 -77.2056 91° East 454 522 17,900 -1,761 Descending Cleveland Center
Mon 04:35:59 PM 42.8194 -77.0550 94° East 445 512 16,300 -1,794 Descending Boston Center
Mon 04:36:47 PM 42.8103 -76.9239 95° East 448 516 15,000 -1,761 Descending Boston Center
Mon 04:37:48 PM 42.8083 -76.7567 91° East 407 468 13,100 -2,115 Descending Boston Center
Mon 04:38:49 PM 42.8564 -76.6411 60° Northeast 343 395 10,700 -2,231 Descending Boston Center
Mon 04:39:49 PM 42.9081 -76.5425 54° Northeast 309 356 8,600 -1,983 Descending Boston Center
Mon 04:40:50 PM 42.9306 -76.4333 74° East 300 345 6,700 -1,672 Descending Boston Center
Mon 04:41:51 PM 42.9450 -76.3208 80° East 297 342 5,200 -1,339 Descending Boston Center
Mon 04:42:51 PM 42.9589 -76.2139 80° East 294 338 4,000 -793 Descending Boston Center
Mon 04:43:52 PM 42.9975 -76.1194 61° Northeast 273 314 3,600 -595 Descending Boston Center
Mon 04:44:52 PM 43.0478 -76.0458 47° Northeast 232 267 2,800 -1,041 Descending Boston Center
Mon 04:45:53 PM 43.0983 -76.0317 12° North 188 216 1,500 -1,033 Descending Boston Center
Mon 04:46:54 PM 43.1092 -76.0808 287° West 118 136 700 -787 Descending Boston Center

Login

Don't have an account? Register now (free) for customized features, flight alerts, and more!